sensor_id;sensor_type;location;lat;lon;timestamp;P1;durP1;ratioP1;P2;durP2;ratioP2
4290;SDS011;2159;50.906;7.152;2023-09-07T00:00:58;5.73;;;3.70;;
4290;SDS011;2159;50.906;7.152;2023-09-07T00:13:17;7.33;;;4.70;;
4290;SDS011;2159;50.906;7.152;2023-09-07T00:15:44;7.87;;;4.60;;
4290;SDS011;2159;50.906;7.152;2023-09-07T00:18:12;9.33;;;4.63;;
4290;SDS011;2159;50.906;7.152;2023-09-07T00:20:42;6.63;;;4.60;;
4290;SDS011;2159;50.906;7.152;2023-09-07T00:23:10;4.87;;;4.37;;
4290;SDS011;2159;50.906;7.152;2023-09-07T00:25:38;7.30;;;4.40;;
4290;SDS011;2159;50.906;7.152;2023-09-07T00:28:05;6.10;;;4.40;;
4290;SDS011;2159;50.906;7.152;2023-09-07T00:30:34;4.70;;;4.20;;
4290;SDS011;2159;50.906;7.152;2023-09-07T00:33:02;8.50;;;4.43;;
4290;SDS011;2159;50.906;7.152;2023-09-07T00:35:29;5.63;;;4.23;;
4290;SDS011;2159;50.906;7.152;2023-09-07T00:37:56;5.03;;;4.30;;
4290;SDS011;2159;50.906;7.152;2023-09-07T00:40:24;4.87;;;4.20;;
4290;SDS011;2159;50.906;7.152;2023-09-07T00:42:52;8.20;;;4.10;;
4290;SDS011;2159;50.906;7.152;2023-09-07T00:45:22;4.63;;;3.90;;
4290;SDS011;2159;50.906;7.152;2023-09-07T00:47:51;4.80;;;4.40;;
4290;SDS011;2159;50.906;7.152;2023-09-07T00:50:19;5.73;;;4.50;;
4290;SDS011;2159;50.906;7.152;2023-09-07T00:52:46;5.80;;;4.57;;
4290;SDS011;2159;50.906;7.152;2023-09-07T00:55:14;6.53;;;4.23;;
4290;SDS011;2159;50.906;7.152;2023-09-07T00:57:42;4.47;;;4.07;;
4290;SDS011;2159;50.906;7.152;2023-09-07T01:00:10;8.70;;;4.40;;
4290;SDS011;2159;50.906;7.152;2023-09-07T01:02:38;4.47;;;4.07;;
4290;SDS011;2159;50.906;7.152;2023-09-07T01:05:07;4.60;;;4.03;;
4290;SDS011;2159;50.906;7.152;2023-09-07T01:07:35;6.10;;;3.87;;
4290;SDS011;2159;50.906;7.152;2023-09-07T01:10:05;5.47;;;4.40;;
4290;SDS011;2159;50.906;7.152;2023-09-07T01:12:33;4.70;;;4.17;;
4290;SDS011;2159;50.906;7.152;2023-09-07T01:15:01;5.00;;;4.50;;
4290;SDS011;2159;50.906;7.152;2023-09-07T01:17:33;4.67;;;4.20;;
4290;SDS011;2159;50.906;7.152;2023-09-07T01:20:02;5.30;;;4.57;;
4290;SDS011;2159;50.906;7.152;2023-09-07T01:22:37;6.13;;;4.57;;
4290;SDS011;2159;50.906;7.152;2023-09-07T01:25:05;4.90;;;4.40;;
4290;SDS011;2159;50.906;7.152;2023-09-07T01:27:34;6.53;;;4.40;;
4290;SDS011;2159;50.906;7.152;2023-09-07T01:30:01;5.33;;;4.40;;
4290;SDS011;2159;50.906;7.152;2023-09-07T01:32:30;5.20;;;4.70;;
4290;SDS011;2159;50.906;7.152;2023-09-07T01:34:58;4.97;;;4.57;;
4290;SDS011;2159;50.906;7.152;2023-09-07T01:37:26;5.30;;;4.23;;
4290;SDS011;2159;50.906;7.152;2023-09-07T01:39:58;6.53;;;4.73;;
4290;SDS011;2159;50.906;7.152;2023-09-07T01:42:25;8.60;;;4.20;;
4290;SDS011;2159;50.906;7.152;2023-09-07T01:44:53;5.60;;;4.30;;
4290;SDS011;2159;50.906;7.152;2023-09-07T01:47:20;6.57;;;4.40;;
4290;SDS011;2159;50.906;7.152;2023-09-07T01:49:48;5.13;;;4.20;;
4290;SDS011;2159;50.906;7.152;2023-09-07T01:52:15;6.27;;;4.40;;
4290;SDS011;2159;50.906;7.152;2023-09-07T01:54:43;4.63;;;4.10;;
4290;SDS011;2159;50.906;7.152;2023-09-07T01:57:12;5.77;;;4.13;;
4290;SDS011;2159;50.906;7.152;2023-09-07T01:59:39;8.47;;;4.30;;
4290;SDS011;2159;50.906;7.152;2023-09-07T02:02:07;4.80;;;4.40;;
4290;SDS011;2159;50.906;7.152;2023-09-07T02:04:34;10.20;;;4.27;;
4290;SDS011;2159;50.906;7.152;2023-09-07T02:07:02;5.00;;;4.33;;
4290;SDS011;2159;50.906;7.152;2023-09-07T02:09:30;4.50;;;4.10;;
4290;SDS011;2159;50.906;7.152;2023-09-07T02:11:57;7.83;;;4.30;;
4290;SDS011;2159;50.906;7.152;2023-09-07T02:14:26;6.10;;;4.20;;
4290;SDS011;2159;50.906;7.152;2023-09-07T02:16:54;7.90;;;4.13;;
4290;SDS011;2159;50.906;7.152;2023-09-07T02:19:21;6.80;;;4.33;;
4290;SDS011;2159;50.906;7.152;2023-09-07T02:21:50;4.83;;;4.10;;
4290;SDS011;2159;50.906;7.152;2023-09-07T02:24:18;4.50;;;4.10;;
4290;SDS011;2159;50.906;7.152;2023-09-07T02:26:46;7.10;;;4.03;;
4290;SDS011;2159;50.906;7.152;2023-09-07T02:29:13;4.20;;;3.90;;
4290;SDS011;2159;50.906;7.152;2023-09-07T02:31:42;8.40;;;3.90;;
4290;SDS011;2159;50.906;7.152;2023-09-07T02:34:10;4.63;;;4.00;;
4290;SDS011;2159;50.906;7.152;2023-09-07T02:36:37;4.43;;;4.03;;
4290;SDS011;2159;50.906;7.152;2023-09-07T02:39:05;4.87;;;4.17;;
4290;SDS011;2159;50.906;7.152;2023-09-07T02:41:34;5.50;;;4.43;;
4290;SDS011;2159;50.906;7.152;2023-09-07T02:44:02;4.67;;;4.17;;
4290;SDS011;2159;50.906;7.152;2023-09-07T02:46:30;4.67;;;4.27;;
4290;SDS011;2159;50.906;7.152;2023-09-07T02:48:59;4.60;;;4.20;;
4290;SDS011;2159;50.906;7.152;2023-09-07T02:51:26;5.70;;;4.27;;
4290;SDS011;2159;50.906;7.152;2023-09-07T02:53:55;4.60;;;4.20;;
4290;SDS011;2159;50.906;7.152;2023-09-07T02:56:23;4.33;;;4.03;;
4290;SDS011;2159;50.906;7.152;2023-09-07T02:58:51;4.30;;;3.90;;
4290;SDS011;2159;50.906;7.152;2023-09-07T03:01:18;5.50;;;4.43;;
4290;SDS011;2159;50.906;7.152;2023-09-07T03:03:47;5.90;;;4.27;;
4290;SDS011;2159;50.906;7.152;2023-09-07T03:06:16;6.90;;;4.40;;
4290;SDS011;2159;50.906;7.152;2023-09-07T03:08:44;6.40;;;4.30;;
4290;SDS011;2159;50.906;7.152;2023-09-07T03:11:12;4.57;;;4.17;;
4290;SDS011;2159;50.906;7.152;2023-09-07T03:13:39;4.53;;;4.13;;
4290;SDS011;2159;50.906;7.152;2023-09-07T03:16:08;6.90;;;4.13;;
4290;SDS011;2159;50.906;7.152;2023-09-07T03:18:36;5.33;;;4.10;;
4290;SDS011;2159;50.906;7.152;2023-09-07T03:21:04;9.53;;;4.00;;
4290;SDS011;2159;50.906;7.152;2023-09-07T03:23:33;5.83;;;4.10;;
4290;SDS011;2159;50.906;7.152;2023-09-07T03:26:00;5.43;;;4.33;;
4290;SDS011;2159;50.906;7.152;2023-09-07T03:28:28;4.60;;;4.20;;
4290;SDS011;2159;50.906;7.152;2023-09-07T03:30:56;4.80;;;3.80;;
4290;SDS011;2159;50.906;7.152;2023-09-07T03:33:23;4.60;;;4.10;;
4290;SDS011;2159;50.906;7.152;2023-09-07T03:35:51;4.63;;;3.80;;
4290;SDS011;2159;50.906;7.152;2023-09-07T03:38:19;6.73;;;3.80;;
4290;SDS011;2159;50.906;7.152;2023-09-07T03:40:47;6.30;;;4.13;;
4290;SDS011;2159;50.906;7.152;2023-09-07T03:43:15;5.57;;;4.10;;
4290;SDS011;2159;50.906;7.152;2023-09-07T03:45:43;4.20;;;3.80;;
4290;SDS011;2159;50.906;7.152;2023-09-07T03:48:10;5.50;;;4.30;;
4290;SDS011;2159;50.906;7.152;2023-09-07T03:50:38;7.23;;;4.23;;
4290;SDS011;2159;50.906;7.152;2023-09-07T03:53:05;7.13;;;4.30;;
4290;SDS011;2159;50.906;7.152;2023-09-07T03:55:39;4.80;;;4.17;;
4290;SDS011;2159;50.906;7.152;2023-09-07T03:58:09;5.07;;;4.07;;
4290;SDS011;2159;50.906;7.152;2023-09-07T04:00:38;4.23;;;3.93;;
4290;SDS011;2159;50.906;7.152;2023-09-07T04:03:05;4.93;;;4.23;;
4290;SDS011;2159;50.906;7.152;2023-09-07T04:05:33;5.27;;;4.20;;
4290;SDS011;2159;50.906;7.152;2023-09-07T04:08:00;4.70;;;4.20;;
4290;SDS011;2159;50.906;7.152;2023-09-07T04:10:29;6.20;;;4.30;;
4290;SDS011;2159;50.906;7.152;2023-09-07T04:12:56;4.80;;;4.30;;
4290;SDS011;2159;50.906;7.152;2023-09-07T04:15:25;5.63;;;4.30;;
4290;SDS011;2159;50.906;7.152;2023-09-07T04:17:52;5.30;;;4.30;;
4290;SDS011;2159;50.906;7.152;2023-09-07T04:20:21;8.43;;;4.30;;
4290;SDS011;2159;50.906;7.152;2023-09-07T04:22:50;7.80;;;4.53;;
4290;SDS011;2159;50.906;7.152;2023-09-07T04:25:17;5.70;;;3.90;;
4290;SDS011;2159;50.906;7.152;2023-09-07T04:27:44;6.17;;;4.10;;
4290;SDS011;2159;50.906;7.152;2023-09-07T04:30:12;6.90;;;4.43;;
4290;SDS011;2159;50.906;7.152;2023-09-07T04:32:41;5.73;;;4.60;;
4290;SDS011;2159;50.906;7.152;2023-09-07T04:35:08;4.43;;;4.03;;
4290;SDS011;2159;50.906;7.152;2023-09-07T04:37:36;9.57;;;4.90;;
4290;SDS011;2159;50.906;7.152;2023-09-07T04:40:05;4.47;;;4.10;;
4290;SDS011;2159;50.906;7.152;2023-09-07T04:42:33;5.37;;;4.10;;
4290;SDS011;2159;50.906;7.152;2023-09-07T04:45:01;6.00;;;4.30;;
4290;SDS011;2159;50.906;7.152;2023-09-07T04:47:29;4.80;;;4.07;;
4290;SDS011;2159;50.906;7.152;2023-09-07T04:49:58;5.47;;;4.20;;
4290;SDS011;2159;50.906;7.152;2023-09-07T04:52:25;8.40;;;4.10;;
4290;SDS011;2159;50.906;7.152;2023-09-07T04:54:53;6.57;;;4.13;;
4290;SDS011;2159;50.906;7.152;2023-09-07T04:57:20;5.30;;;4.20;;
4290;SDS011;2159;50.906;7.152;2023-09-07T04:59:48;5.37;;;4.30;;
4290;SDS011;2159;50.906;7.152;2023-09-07T05:02:15;4.60;;;3.80;;
4290;SDS011;2159;50.906;7.152;2023-09-07T05:04:43;5.20;;;4.30;;
4290;SDS011;2159;50.906;7.152;2023-09-07T05:07:12;9.07;;;4.33;;
4290;SDS011;2159;50.906;7.152;2023-09-07T05:09:40;4.37;;;3.97;;
4290;SDS011;2159;50.906;7.152;2023-09-07T05:12:07;4.07;;;3.77;;
4290;SDS011;2159;50.906;7.152;2023-09-07T05:14:35;7.80;;;4.00;;
4290;SDS011;2159;50.906;7.152;2023-09-07T05:17:03;5.60;;;4.40;;
4290;SDS011;2159;50.906;7.152;2023-09-07T05:19:30;4.90;;;4.03;;
4290;SDS011;2159;50.906;7.152;2023-09-07T05:21:58;5.00;;;4.50;;
4290;SDS011;2159;50.906;7.152;2023-09-07T05:24:26;4.90;;;4.20;;
4290;SDS011;2159;50.906;7.152;2023-09-07T05:26:54;5.03;;;4.27;;
4290;SDS011;2159;50.906;7.152;2023-09-07T05:29:21;8.20;;;4.60;;
4290;SDS011;2159;50.906;7.152;2023-09-07T05:31:49;7.67;;;4.03;;
4290;SDS011;2159;50.906;7.152;2023-09-07T05:34:16;4.50;;;4.17;;
4290;SDS011;2159;50.906;7.152;2023-09-07T05:36:44;6.43;;;4.00;;
4290;SDS011;2159;50.906;7.152;2023-09-07T05:39:11;5.80;;;4.10;;
4290;SDS011;2159;50.906;7.152;2023-09-07T05:41:40;4.97;;;4.47;;
4290;SDS011;2159;50.906;7.152;2023-09-07T05:44:08;5.90;;;4.33;;
4290;SDS011;2159;50.906;7.152;2023-09-07T05:46:35;4.33;;;4.00;;
4290;SDS011;2159;50.906;7.152;2023-09-07T05:49:03;4.20;;;3.90;;
4290;SDS011;2159;50.906;7.152;2023-09-07T05:51:30;5.27;;;4.50;;
4290;SDS011;2159;50.906;7.152;2023-09-07T05:53:58;5.43;;;4.27;;
4290;SDS011;2159;50.906;7.152;2023-09-07T05:56:25;4.60;;;4.20;;
4290;SDS011;2159;50.906;7.152;2023-09-07T05:58:54;5.47;;;4.63;;
4290;SDS011;2159;50.906;7.152;2023-09-07T06:01:22;4.73;;;4.33;;
4290;SDS011;2159;50.906;7.152;2023-09-07T06:03:49;6.40;;;5.20;;
4290;SDS011;2159;50.906;7.152;2023-09-07T06:06:17;7.60;;;4.93;;
4290;SDS011;2159;50.906;7.152;2023-09-07T06:08:44;10.10;;;4.50;;
4290;SDS011;2159;50.906;7.152;2023-09-07T06:11:12;10.20;;;4.90;;
4290;SDS011;2159;50.906;7.152;2023-09-07T06:13:39;5.70;;;4.80;;
4290;SDS011;2159;50.906;7.152;2023-09-07T06:16:09;5.00;;;4.50;;
4290;SDS011;2159;50.906;7.152;2023-09-07T06:18:36;5.33;;;4.80;;
4290;SDS011;2159;50.906;7.152;2023-09-07T06:21:04;6.13;;;4.80;;
4290;SDS011;2159;50.906;7.152;2023-09-07T06:23:32;8.90;;;4.30;;
4290;SDS011;2159;50.906;7.152;2023-09-07T06:25:59;5.33;;;4.80;;
4290;SDS011;2159;50.906;7.152;2023-09-07T06:28:27;5.47;;;4.93;;
4290;SDS011;2159;50.906;7.152;2023-09-07T06:30:54;10.00;;;5.00;;
4290;SDS011;2159;50.906;7.152;2023-09-07T06:33:23;9.17;;;5.23;;
4290;SDS011;2159;50.906;7.152;2023-09-07T06:35:51;6.10;;;4.90;;
4290;SDS011;2159;50.906;7.152;2023-09-07T06:38:18;4.43;;;4.03;;
4290;SDS011;2159;50.906;7.152;2023-09-07T06:40:47;9.47;;;4.90;;
4290;SDS011;2159;50.906;7.152;2023-09-07T06:43:15;6.43;;;4.40;;
4290;SDS011;2159;50.906;7.152;2023-09-07T06:45:42;7.40;;;4.60;;
4290;SDS011;2159;50.906;7.152;2023-09-07T06:48:10;7.10;;;4.30;;
4290;SDS011;2159;50.906;7.152;2023-09-07T06:50:40;5.20;;;4.70;;
4290;SDS011;2159;50.906;7.152;2023-09-07T06:53:07;7.10;;;4.77;;
4290;SDS011;2159;50.906;7.152;2023-09-07T06:55:35;8.57;;;5.50;;
4290;SDS011;2159;50.906;7.152;2023-09-07T06:58:02;5.17;;;4.67;;
4290;SDS011;2159;50.906;7.152;2023-09-07T07:00:30;5.70;;;4.70;;
4290;SDS011;2159;50.906;7.152;2023-09-07T07:02:57;6.23;;;4.60;;
4290;SDS011;2159;50.906;7.152;2023-09-07T07:05:25;8.50;;;5.10;;
4290;SDS011;2159;50.906;7.152;2023-09-07T07:07:56;9.40;;;4.57;;
4290;SDS011;2159;50.906;7.152;2023-09-07T07:10:23;5.10;;;4.40;;
4290;SDS011;2159;50.906;7.152;2023-09-07T07:12:51;4.50;;;4.20;;
4290;SDS011;2159;50.906;7.152;2023-09-07T07:15:18;5.40;;;4.50;;
4290;SDS011;2159;50.906;7.152;2023-09-07T07:17:46;8.63;;;4.47;;
4290;SDS011;2159;50.906;7.152;2023-09-07T07:20:13;6.03;;;4.47;;
4290;SDS011;2159;50.906;7.152;2023-09-07T07:22:41;5.67;;;4.70;;
4290;SDS011;2159;50.906;7.152;2023-09-07T07:25:10;4.70;;;4.30;;
4290;SDS011;2159;50.906;7.152;2023-09-07T07:27:37;10.93;;;4.80;;
4290;SDS011;2159;50.906;7.152;2023-09-07T07:30:06;4.60;;;4.20;;
4290;SDS011;2159;50.906;7.152;2023-09-07T07:32:33;7.60;;;3.90;;
4290;SDS011;2159;50.906;7.152;2023-09-07T07:35:01;5.23;;;4.23;;
4290;SDS011;2159;50.906;7.152;2023-09-07T07:37:29;5.87;;;4.60;;
4290;SDS011;2159;50.906;7.152;2023-09-07T07:39:57;4.67;;;4.27;;
4290;SDS011;2159;50.906;7.152;2023-09-07T07:42:25;7.93;;;4.60;;
4290;SDS011;2159;50.906;7.152;2023-09-07T07:44:53;5.17;;;4.10;;
4290;SDS011;2159;50.906;7.152;2023-09-07T07:47:20;6.53;;;4.20;;
4290;SDS011;2159;50.906;7.152;2023-09-07T07:49:48;4.43;;;4.03;;
4290;SDS011;2159;50.906;7.152;2023-09-07T07:52:15;4.80;;;4.40;;
4290;SDS011;2159;50.906;7.152;2023-09-07T07:54:43;5.37;;;4.27;;
4290;SDS011;2159;50.906;7.152;2023-09-07T07:57:10;4.83;;;4.30;;
4290;SDS011;2159;50.906;7.152;2023-09-07T07:59:39;4.20;;;3.90;;
4290;SDS011;2159;50.906;7.152;2023-09-07T08:02:07;5.43;;;4.10;;
4290;SDS011;2159;50.906;7.152;2023-09-07T08:04:34;5.27;;;3.93;;
4290;SDS011;2159;50.906;7.152;2023-09-07T08:07:02;7.63;;;4.00;;
4290;SDS011;2159;50.906;7.152;2023-09-07T08:09:30;5.40;;;4.30;;
4290;SDS011;2159;50.906;7.152;2023-09-07T08:11:58;4.80;;;4.40;;
4290;SDS011;2159;50.906;7.152;2023-09-07T08:14:28;5.13;;;4.63;;
4290;SDS011;2159;50.906;7.152;2023-09-07T08:16:58;6.00;;;4.03;;
4290;SDS011;2159;50.906;7.152;2023-09-07T08:19:25;6.93;;;4.17;;
4290;SDS011;2159;50.906;7.152;2023-09-07T08:21:54;4.83;;;4.07;;
4290;SDS011;2159;50.906;7.152;2023-09-07T08:24:21;4.33;;;3.93;;
4290;SDS011;2159;50.906;7.152;2023-09-07T08:26:49;4.23;;;3.93;;
4290;SDS011;2159;50.906;7.152;2023-09-07T08:29:20;5.93;;;4.53;;
4290;SDS011;2159;50.906;7.152;2023-09-07T08:31:51;4.70;;;4.30;;
4290;SDS011;2159;50.906;7.152;2023-09-07T08:34:20;4.87;;;4.40;;
4290;SDS011;2159;50.906;7.152;2023-09-07T08:36:48;5.20;;;4.30;;
4290;SDS011;2159;50.906;7.152;2023-09-07T08:39:16;4.37;;;3.97;;
4290;SDS011;2159;50.906;7.152;2023-09-07T08:41:44;4.50;;;4.20;;
4290;SDS011;2159;50.906;7.152;2023-09-07T08:44:27;5.30;;;4.43;;
4290;SDS011;2159;50.906;7.152;2023-09-07T08:46:55;4.50;;;4.10;;
4290;SDS011;2159;50.906;7.152;2023-09-07T08:49:25;6.00;;;4.73;;
4290;SDS011;2159;50.906;7.152;2023-09-07T08:51:54;4.77;;;4.00;;
4290;SDS011;2159;50.906;7.152;2023-09-07T08:54:24;4.40;;;4.00;;
4290;SDS011;2159;50.906;7.152;2023-09-07T08:56:52;5.20;;;4.20;;
4290;SDS011;2159;50.906;7.152;2023-09-07T08:59:19;4.60;;;4.20;;
4290;SDS011;2159;50.906;7.152;2023-09-07T09:01:49;4.70;;;4.20;;
4290;SDS011;2159;50.906;7.152;2023-09-07T09:04:16;4.20;;;3.90;;
4290;SDS011;2159;50.906;7.152;2023-09-07T09:06:45;5.10;;;4.13;;
4290;SDS011;2159;50.906;7.152;2023-09-07T09:09:21;4.80;;;4.40;;
4290;SDS011;2159;50.906;7.152;2023-09-07T09:11:48;4.73;;;4.07;;
4290;SDS011;2159;50.906;7.152;2023-09-07T09:14:16;5.53;;;4.00;;
4290;SDS011;2159;50.906;7.152;2023-09-07T09:16:47;4.70;;;4.20;;
4290;SDS011;2159;50.906;7.152;2023-09-07T09:19:15;6.07;;;4.60;;
4290;SDS011;2159;50.906;7.152;2023-09-07T09:21:44;4.70;;;4.27;;
4290;SDS011;2159;50.906;7.152;2023-09-07T09:24:13;4.47;;;4.07;;
4290;SDS011;2159;50.906;7.152;2023-09-07T09:26:41;7.73;;;4.13;;
4290;SDS011;2159;50.906;7.152;2023-09-07T09:29:09;11.50;;;3.80;;
4290;SDS011;2159;50.906;7.152;2023-09-07T09:31:37;10.67;;;4.43;;
4290;SDS011;2159;50.906;7.152;2023-09-07T09:34:05;4.90;;;4.10;;
4290;SDS011;2159;50.906;7.152;2023-09-07T09:36:33;7.93;;;4.23;;
4290;SDS011;2159;50.906;7.152;2023-09-07T09:39:01;4.53;;;4.10;;
4290;SDS011;2159;50.906;7.152;2023-09-07T09:41:30;6.90;;;4.17;;
4290;SDS011;2159;50.906;7.152;2023-09-07T09:43:59;4.23;;;3.83;;
4290;SDS011;2159;50.906;7.152;2023-09-07T09:46:28;4.30;;;3.90;;
4290;SDS011;2159;50.906;7.152;2023-09-07T09:48:56;7.70;;;4.30;;
4290;SDS011;2159;50.906;7.152;2023-09-07T09:51:24;4.00;;;3.70;;
4290;SDS011;2159;50.906;7.152;2023-09-07T09:53:52;4.57;;;4.13;;
4290;SDS011;2159;50.906;7.152;2023-09-07T09:56:20;7.33;;;4.50;;
4290;SDS011;2159;50.906;7.152;2023-09-07T09:58:50;9.93;;;4.60;;
4290;SDS011;2159;50.906;7.152;2023-09-07T10:01:19;4.40;;;4.00;;
4290;SDS011;2159;50.906;7.152;2023-09-07T10:03:49;6.73;;;4.10;;
4290;SDS011;2159;50.906;7.152;2023-09-07T10:06:18;5.53;;;4.50;;
4290;SDS011;2159;50.906;7.152;2023-09-07T10:08:53;4.43;;;4.03;;
4290;SDS011;2159;50.906;7.152;2023-09-07T10:11:29;4.20;;;3.90;;
4290;SDS011;2159;50.906;7.152;2023-09-07T10:13:58;4.17;;;3.77;;
4290;SDS011;2159;50.906;7.152;2023-09-07T10:16:26;4.57;;;4.00;;
4290;SDS011;2159;50.906;7.152;2023-09-07T10:18:54;6.90;;;3.97;;
4290;SDS011;2159;50.906;7.152;2023-09-07T10:21:24;4.43;;;4.07;;
4290;SDS011;2159;50.906;7.152;2023-09-07T10:23:52;6.37;;;4.17;;
4290;SDS011;2159;50.906;7.152;2023-09-07T10:26:20;4.00;;;3.70;;
4290;SDS011;2159;50.906;7.152;2023-09-07T10:28:57;4.33;;;3.93;;
4290;SDS011;2159;50.906;7.152;2023-09-07T10:31:26;4.70;;;4.20;;
4290;SDS011;2159;50.906;7.152;2023-09-07T10:34:16;5.40;;;3.90;;
4290;SDS011;2159;50.906;7.152;2023-09-07T10:36:44;9.90;;;4.20;;
4290;SDS011;2159;50.906;7.152;2023-09-07T10:39:11;4.30;;;3.97;;
4290;SDS011;2159;50.906;7.152;2023-09-07T10:41:43;6.10;;;4.10;;
4290;SDS011;2159;50.906;7.152;2023-09-07T10:44:11;4.73;;;3.70;;
4290;SDS011;2159;50.906;7.152;2023-09-07T10:46:41;6.50;;;3.80;;
4290;SDS011;2159;50.906;7.152;2023-09-07T10:49:11;6.47;;;3.80;;
4290;SDS011;2159;50.906;7.152;2023-09-07T10:51:41;5.47;;;4.30;;
4290;SDS011;2159;50.906;7.152;2023-09-07T10:54:13;4.00;;;3.63;;
4290;SDS011;2159;50.906;7.152;2023-09-07T10:56:42;6.27;;;4.13;;
4290;SDS011;2159;50.906;7.152;2023-09-07T10:59:13;8.13;;;4.10;;
4290;SDS011;2159;50.906;7.152;2023-09-07T11:01:43;7.77;;;3.87;;
4290;SDS011;2159;50.906;7.152;2023-09-07T11:04:10;4.30;;;3.80;;
4290;SDS011;2159;50.906;7.152;2023-09-07T11:06:39;4.63;;;4.13;;
4290;SDS011;2159;50.906;7.152;2023-09-07T11:09:08;4.00;;;3.70;;
4290;SDS011;2159;50.906;7.152;2023-09-07T11:11:37;8.33;;;4.33;;
4290;SDS011;2159;50.906;7.152;2023-09-07T11:14:05;5.73;;;4.13;;
4290;SDS011;2159;50.906;7.152;2023-09-07T11:16:33;4.87;;;4.17;;
4290;SDS011;2159;50.906;7.152;2023-09-07T11:19:06;5.30;;;3.80;;
4290;SDS011;2159;50.906;7.152;2023-09-07T11:21:34;4.00;;;3.70;;
4290;SDS011;2159;50.906;7.152;2023-09-07T11:24:02;10.50;;;3.83;;
4290;SDS011;2159;50.906;7.152;2023-09-07T11:26:40;8.73;;;4.20;;
4290;SDS011;2159;50.906;7.152;2023-09-07T11:29:07;4.37;;;3.97;;
4290;SDS011;2159;50.906;7.152;2023-09-07T11:31:35;7.50;;;3.97;;
4290;SDS011;2159;50.906;7.152;2023-09-07T11:34:03;4.20;;;3.90;;
4290;SDS011;2159;50.906;7.152;2023-09-07T11:36:32;4.60;;;3.80;;
4290;SDS011;2159;50.906;7.152;2023-09-07T11:38:59;6.37;;;4.03;;
4290;SDS011;2159;50.906;7.152;2023-09-07T11:41:27;3.80;;;3.60;;
4290;SDS011;2159;50.906;7.152;2023-09-07T11:43:54;7.43;;;4.27;;
4290;SDS011;2159;50.906;7.152;2023-09-07T11:46:24;4.30;;;4.00;;
4290;SDS011;2159;50.906;7.152;2023-09-07T11:48:52;4.57;;;3.60;;
4290;SDS011;2159;50.906;7.152;2023-09-07T11:51:19;4.00;;;3.67;;
4290;SDS011;2159;50.906;7.152;2023-09-07T11:53:49;7.90;;;3.90;;
4290;SDS011;2159;50.906;7.152;2023-09-07T11:56:16;7.63;;;4.40;;
4290;SDS011;2159;50.906;7.152;2023-09-07T11:58:44;5.30;;;3.93;;
4290;SDS011;2159;50.906;7.152;2023-09-07T12:01:11;6.40;;;3.90;;
4290;SDS011;2159;50.906;7.152;2023-09-07T12:03:43;6.73;;;3.90;;
4290;SDS011;2159;50.906;7.152;2023-09-07T12:06:11;4.40;;;4.00;;
4290;SDS011;2159;50.906;7.152;2023-09-07T12:08:41;4.10;;;3.80;;
4290;SDS011;2159;50.906;7.152;2023-09-07T12:11:10;4.13;;;3.73;;
4290;SDS011;2159;50.906;7.152;2023-09-07T12:13:37;4.20;;;3.90;;
4290;SDS011;2159;50.906;7.152;2023-09-07T12:16:05;4.70;;;3.80;;
4290;SDS011;2159;50.906;7.152;2023-09-07T12:18:32;4.40;;;4.00;;
4290;SDS011;2159;50.906;7.152;2023-09-07T12:21:00;3.80;;;3.50;;
4290;SDS011;2159;50.906;7.152;2023-09-07T12:23:28;3.93;;;3.60;;
4290;SDS011;2159;50.906;7.152;2023-09-07T12:25:56;4.20;;;3.73;;
4290;SDS011;2159;50.906;7.152;2023-09-07T12:28:25;4.03;;;3.73;;
4290;SDS011;2159;50.906;7.152;2023-09-07T12:30:53;4.77;;;3.90;;
4290;SDS011;2159;50.906;7.152;2023-09-07T12:33:20;6.67;;;3.90;;
4290;SDS011;2159;50.906;7.152;2023-09-07T12:35:51;3.70;;;3.50;;
4290;SDS011;2159;50.906;7.152;2023-09-07T12:38:18;5.07;;;3.60;;
4290;SDS011;2159;50.906;7.152;2023-09-07T12:40:48;7.00;;;3.90;;
4290;SDS011;2159;50.906;7.152;2023-09-07T12:43:16;4.00;;;3.70;;
4290;SDS011;2159;50.906;7.152;2023-09-07T12:45:44;5.60;;;3.90;;
4290;SDS011;2159;50.906;7.152;2023-09-07T12:48:12;4.87;;;3.60;;
4290;SDS011;2159;50.906;7.152;2023-09-07T12:50:40;4.20;;;3.80;;
4290;SDS011;2159;50.906;7.152;2023-09-07T12:53:09;10.27;;;4.20;;
4290;SDS011;2159;50.906;7.152;2023-09-07T12:55:36;6.20;;;3.80;;
4290;SDS011;2159;50.906;7.152;2023-09-07T12:58:04;8.33;;;4.10;;
4290;SDS011;2159;50.906;7.152;2023-09-07T13:00:31;4.33;;;4.00;;
4290;SDS011;2159;50.906;7.152;2023-09-07T13:03:00;3.87;;;3.57;;
4290;SDS011;2159;50.906;7.152;2023-09-07T13:05:28;4.20;;;3.90;;
4290;SDS011;2159;50.906;7.152;2023-09-07T13:07:56;4.87;;;3.80;;
4290;SDS011;2159;50.906;7.152;2023-09-07T13:10:25;4.03;;;3.73;;
4290;SDS011;2159;50.906;7.152;2023-09-07T13:12:53;5.93;;;3.77;;
4290;SDS011;2159;50.906;7.152;2023-09-07T13:15:20;4.20;;;3.90;;
4290;SDS011;2159;50.906;7.152;2023-09-07T13:17:48;5.07;;;3.77;;
4290;SDS011;2159;50.906;7.152;2023-09-07T13:20:17;4.37;;;3.60;;
4290;SDS011;2159;50.906;7.152;2023-09-07T13:22:46;4.30;;;3.90;;
4290;SDS011;2159;50.906;7.152;2023-09-07T13:25:13;6.60;;;3.80;;
4290;SDS011;2159;50.906;7.152;2023-09-07T13:27:41;3.87;;;3.57;;
4290;SDS011;2159;50.906;7.152;2023-09-07T13:30:08;4.27;;;3.87;;
4290;SDS011;2159;50.906;7.152;2023-09-07T13:32:38;3.93;;;3.70;;
4290;SDS011;2159;50.906;7.152;2023-09-07T13:35:06;5.10;;;3.40;;
4290;SDS011;2159;50.906;7.152;2023-09-07T13:37:34;4.83;;;3.70;;
4290;SDS011;2159;50.906;7.152;2023-09-07T13:40:03;4.20;;;3.80;;
4290;SDS011;2159;50.906;7.152;2023-09-07T13:42:31;4.00;;;3.70;;
4290;SDS011;2159;50.906;7.152;2023-09-07T13:44:59;5.70;;;3.60;;
4290;SDS011;2159;50.906;7.152;2023-09-07T13:47:27;7.30;;;4.07;;
4290;SDS011;2159;50.906;7.152;2023-09-07T13:49:54;4.00;;;3.57;;
4290;SDS011;2159;50.906;7.152;2023-09-07T13:52:22;5.00;;;3.60;;
4290;SDS011;2159;50.906;7.152;2023-09-07T13:54:51;5.60;;;3.70;;
4290;SDS011;2159;50.906;7.152;2023-09-07T13:57:18;3.80;;;3.50;;
4290;SDS011;2159;50.906;7.152;2023-09-07T13:59:47;5.80;;;4.10;;
4290;SDS011;2159;50.906;7.152;2023-09-07T14:02:14;3.63;;;3.33;;
4290;SDS011;2159;50.906;7.152;2023-09-07T14:04:42;4.60;;;3.70;;
4290;SDS011;2159;50.906;7.152;2023-09-07T14:07:09;5.50;;;3.80;;
4290;SDS011;2159;50.906;7.152;2023-09-07T14:09:37;4.57;;;3.73;;
4290;SDS011;2159;50.906;7.152;2023-09-07T14:12:06;3.70;;;3.40;;
4290;SDS011;2159;50.906;7.152;2023-09-07T14:14:33;5.50;;;3.70;;
4290;SDS011;2159;50.906;7.152;2023-09-07T14:17:01;3.50;;;3.30;;
4290;SDS011;2159;50.906;7.152;2023-09-07T14:19:29;6.40;;;3.67;;
4290;SDS011;2159;50.906;7.152;2023-09-07T14:21:57;4.37;;;3.30;;
4290;SDS011;2159;50.906;7.152;2023-09-07T14:24:25;8.20;;;3.90;;
4290;SDS011;2159;50.906;7.152;2023-09-07T14:26:52;4.33;;;3.47;;
4290;SDS011;2159;50.906;7.152;2023-09-07T14:29:21;7.43;;;3.30;;
4290;SDS011;2159;50.906;7.152;2023-09-07T14:31:49;4.17;;;3.77;;
4290;SDS011;2159;50.906;7.152;2023-09-07T14:34:16;4.40;;;4.00;;
4290;SDS011;2159;50.906;7.152;2023-09-07T14:36:44;4.40;;;4.03;;
4290;SDS011;2159;50.906;7.152;2023-09-07T14:39:11;6.87;;;3.27;;
4290;SDS011;2159;50.906;7.152;2023-09-07T14:41:39;4.87;;;4.00;;
4290;SDS011;2159;50.906;7.152;2023-09-07T14:44:09;5.93;;;3.63;;
4290;SDS011;2159;50.906;7.152;2023-09-07T14:46:38;5.47;;;3.77;;
4290;SDS011;2159;50.906;7.152;2023-09-07T14:49:06;4.03;;;3.50;;
4290;SDS011;2159;50.906;7.152;2023-09-07T14:51:33;3.70;;;3.40;;
4290;SDS011;2159;50.906;7.152;2023-09-07T14:54:00;4.07;;;3.77;;
4290;SDS011;2159;50.906;7.152;2023-09-07T14:56:29;4.40;;;3.70;;
4290;SDS011;2159;50.906;7.152;2023-09-07T14:59:01;3.90;;;3.50;;
4290;SDS011;2159;50.906;7.152;2023-09-07T15:01:28;4.17;;;3.87;;
4290;SDS011;2159;50.906;7.152;2023-09-07T15:03:57;3.80;;;3.50;;
4290;SDS011;2159;50.906;7.152;2023-09-07T15:06:25;3.67;;;3.40;;
4290;SDS011;2159;50.906;7.152;2023-09-07T15:08:52;3.97;;;3.57;;
4290;SDS011;2159;50.906;7.152;2023-09-07T15:11:20;6.67;;;3.50;;
4290;SDS011;2159;50.906;7.152;2023-09-07T15:13:48;6.60;;;3.40;;
4290;SDS011;2159;50.906;7.152;2023-09-07T15:16:17;4.00;;;3.60;;
4290;SDS011;2159;50.906;7.152;2023-09-07T15:18:44;4.70;;;3.60;;
4290;SDS011;2159;50.906;7.152;2023-09-07T15:21:13;5.50;;;3.40;;
4290;SDS011;2159;50.906;7.152;2023-09-07T15:23:41;4.23;;;3.80;;
4290;SDS011;2159;50.906;7.152;2023-09-07T15:26:09;4.97;;;3.40;;
4290;SDS011;2159;50.906;7.152;2023-09-07T15:28:37;4.87;;;3.50;;
4290;SDS011;2159;50.906;7.152;2023-09-07T15:31:05;7.10;;;3.67;;